createdAt,value
2019-03-28T00:00:50.224Z,10.80
2019-03-28T00:03:23.466Z,9.60
2019-03-28T00:05:56.706Z,11.57
2019-03-28T00:08:29.973Z,12.10
2019-03-28T00:11:03.226Z,11.33
2019-03-28T00:13:36.486Z,12.73
2019-03-28T00:16:10.785Z,12.60
2019-03-28T00:18:44.240Z,12.67
2019-03-28T00:21:17.467Z,11.37
2019-03-28T00:24:13.339Z,11.10
2019-03-28T00:26:46.576Z,11.97
2019-03-28T00:29:19.847Z,10.73
2019-03-28T00:31:53.093Z,12.37
2019-03-28T00:34:26.365Z,10.40
2019-03-28T00:36:59.637Z,10.97
2019-03-28T00:39:32.894Z,10.53
2019-03-28T00:42:06.128Z,11.27
2019-03-28T00:44:39.395Z,10.53
2019-03-28T00:47:12.619Z,10.00
2019-03-28T00:49:45.909Z,10.20
2019-03-28T00:52:19.137Z,9.87
2019-03-28T00:54:52.391Z,9.43
2019-03-28T00:57:25.615Z,11.37
2019-03-28T00:59:58.949Z,11.07
2019-03-28T01:02:32.195Z,11.33
2019-03-28T01:05:05.731Z,9.80
2019-03-28T01:07:39.029Z,9.43
2019-03-28T01:10:12.305Z,9.93
2019-03-28T01:12:45.547Z,9.67
2019-03-28T01:15:18.795Z,10.93
2019-03-28T01:17:52.033Z,9.33
2019-03-28T01:20:25.278Z,9.67
2019-03-28T01:22:58.504Z,10.03
2019-03-28T01:25:31.761Z,9.60
2019-03-28T01:28:04.982Z,9.93
2019-03-28T01:30:39.324Z,9.80
2019-03-28T01:33:12.539Z,9.73
2019-03-28T01:35:46.851Z,8.20
2019-03-28T01:38:20.279Z,8.43
2019-03-28T01:40:53.708Z,8.53
2019-03-28T01:43:27.242Z,9.70
2019-03-28T01:46:00.651Z,9.20
2019-03-28T01:48:33.894Z,8.20
2019-03-28T01:51:07.137Z,8.33
2019-03-28T01:53:40.422Z,8.67
2019-03-28T01:56:13.668Z,8.40
2019-03-28T01:58:46.895Z,7.60
2019-03-28T02:01:20.126Z,7.73
2019-03-28T02:03:53.336Z,7.93
2019-03-28T02:06:26.587Z,7.47
2019-03-28T02:08:59.797Z,7.73
2019-03-28T02:11:33.062Z,8.40
2019-03-28T02:14:06.344Z,8.53
2019-03-28T02:16:39.603Z,7.40
2019-03-28T02:19:12.899Z,8.47
2019-03-28T02:21:46.149Z,8.43
2019-03-28T02:24:19.385Z,9.20
2019-03-28T02:26:52.612Z,8.90
2019-03-28T02:29:25.839Z,8.87
2019-03-28T02:31:59.084Z,8.17
2019-03-28T02:34:32.302Z,9.23
2019-03-28T02:37:05.553Z,8.07
2019-03-28T02:39:38.765Z,8.57
2019-03-28T02:42:12.011Z,8.30
2019-03-28T02:44:45.260Z,8.40
2019-03-28T02:47:18.510Z,9.83
2019-03-28T02:49:51.748Z,8.10
2019-03-28T02:52:24.987Z,8.20
2019-03-28T02:54:58.219Z,9.83
2019-03-28T02:57:40.805Z,9.63
2019-03-28T03:00:06.858Z,8.87
2019-03-28T03:02:41.372Z,8.47
2019-03-28T03:05:14.604Z,7.80
2019-03-28T03:07:47.862Z,8.70
2019-03-28T03:10:21.083Z,9.37
2019-03-28T03:12:54.332Z,8.13
2019-03-28T03:15:27.585Z,8.43
2019-03-28T03:18:00.834Z,8.77
2019-03-28T03:20:34.061Z,9.20
2019-03-28T03:23:07.305Z,8.53
2019-03-28T03:25:40.518Z,7.70
2019-03-28T03:28:13.758Z,7.73
2019-03-28T03:30:46.981Z,7.23
2019-03-28T03:33:20.216Z,6.87
2019-03-28T03:35:53.430Z,8.17
2019-03-28T03:38:26.673Z,8.27
2019-03-28T03:40:59.894Z,7.67
2019-03-28T03:43:33.136Z,7.43
2019-03-28T03:46:06.421Z,8.47
2019-03-28T03:48:39.672Z,7.10
2019-03-28T03:51:12.904Z,7.83
2019-03-28T03:53:46.137Z,7.30
2019-03-28T03:56:19.461Z,7.60
2019-03-28T03:58:52.679Z,6.63
2019-03-28T04:01:25.918Z,8.50
2019-03-28T04:03:59.189Z,7.83
2019-03-28T04:06:33.480Z,7.90
2019-03-28T04:09:08.135Z,7.67
2019-03-28T04:11:41.396Z,8.00
2019-03-28T04:14:14.697Z,7.23
2019-03-28T04:16:47.933Z,7.43
2019-03-28T04:19:21.183Z,7.63
2019-03-28T04:21:54.398Z,8.00
2019-03-28T04:24:27.642Z,6.53
2019-03-28T04:27:00.844Z,7.90
2019-03-28T04:29:34.096Z,7.67
2019-03-28T04:32:07.311Z,7.67
2019-03-28T04:34:40.597Z,8.27
2019-03-28T04:37:13.809Z,7.10
2019-03-28T04:39:47.052Z,7.67
2019-03-28T04:42:20.307Z,7.90
2019-03-28T04:44:53.517Z,7.70
2019-03-28T04:47:26.760Z,7.57
2019-03-28T04:50:00.030Z,7.17
2019-03-28T04:52:33.290Z,8.07
2019-03-28T04:55:06.960Z,7.90
2019-03-28T04:57:41.131Z,7.83
2019-03-28T05:00:14.686Z,7.83
2019-03-28T05:02:47.900Z,8.10
2019-03-28T05:05:21.137Z,8.60
2019-03-28T05:07:54.362Z,7.17
2019-03-28T05:10:27.600Z,7.43
2019-03-28T05:13:00.824Z,8.63
2019-03-28T05:15:34.082Z,8.47
2019-03-28T05:18:07.324Z,7.47
2019-03-28T05:20:40.719Z,7.37
2019-03-28T05:23:14.367Z,7.77
2019-03-28T05:25:47.777Z,8.43
2019-03-28T05:28:21.021Z,8.53
2019-03-28T05:30:54.265Z,7.67
2019-03-28T05:33:27.486Z,7.93
2019-03-28T05:36:00.728Z,7.60
2019-03-28T05:38:33.941Z,8.97
2019-03-28T05:41:07.189Z,9.60
2019-03-28T05:43:40.408Z,9.13
2019-03-28T05:46:13.685Z,9.53
2019-03-28T05:48:46.983Z,9.30
2019-03-28T05:51:20.225Z,8.27
2019-03-28T05:53:53.452Z,9.00
2019-03-28T05:56:26.713Z,8.93
2019-03-28T05:59:10.645Z,8.13
2019-03-28T06:01:36.436Z,7.97
2019-03-28T06:04:10.118Z,9.20
2019-03-28T06:06:44.244Z,9.03
2019-03-28T06:09:17.552Z,8.83
2019-03-28T06:11:52.965Z,8.13
2019-03-28T06:14:25.713Z,8.60
2019-03-28T06:16:58.961Z,8.80
2019-03-28T06:19:32.201Z,9.73
2019-03-28T06:22:07.101Z,10.10
2019-03-28T06:24:40.327Z,9.70
2019-03-28T06:27:13.582Z,9.70
2019-03-28T06:29:52.718Z,9.73
2019-03-28T06:32:26.058Z,10.17
2019-03-28T06:34:59.286Z,10.57
2019-03-28T06:37:32.670Z,9.67
2019-03-28T06:40:06.029Z,9.17
2019-03-28T06:42:39.264Z,9.13
2019-03-28T06:45:12.512Z,9.40
2019-03-28T06:47:45.795Z,9.97
2019-03-28T06:50:19.065Z,11.60
2019-03-28T06:52:52.315Z,9.70
2019-03-28T06:55:25.706Z,10.47
2019-03-28T06:57:59.188Z,10.10
2019-03-28T07:00:32.425Z,10.30
2019-03-28T07:03:05.682Z,9.93
2019-03-28T07:05:38.934Z,8.87
2019-03-28T07:08:12.210Z,9.17
2019-03-28T07:10:45.444Z,10.77
2019-03-28T07:13:18.701Z,11.63
2019-03-28T07:15:51.946Z,10.43
2019-03-28T07:18:25.205Z,14.40
2019-03-28T07:20:58.442Z,14.63
2019-03-28T07:23:31.712Z,12.63
2019-03-28T07:26:04.958Z,11.90
2019-03-28T07:28:38.360Z,12.67
2019-03-28T07:31:12.586Z,11.67
2019-03-28T07:33:46.100Z,12.43
2019-03-28T07:36:19.359Z,13.10
2019-03-28T07:38:52.621Z,11.10
2019-03-28T07:41:25.858Z,12.13
2019-03-28T07:43:59.229Z,12.33
2019-03-28T07:46:32.449Z,12.53
2019-03-28T07:49:05.724Z,12.60
2019-03-28T07:51:38.960Z,13.90
2019-03-28T07:54:13.307Z,13.63
2019-03-28T07:56:46.975Z,14.70
2019-03-28T07:59:20.244Z,13.00
2019-03-28T08:01:53.474Z,14.13
2019-03-28T08:04:26.800Z,15.33
2019-03-28T08:07:00.024Z,16.70
2019-03-28T08:09:36.939Z,15.80
2019-03-28T08:12:21.769Z,15.73
2019-03-28T08:14:44.242Z,15.67
2019-03-28T08:17:17.515Z,16.87
2019-03-28T08:19:50.841Z,18.33
2019-03-28T08:22:24.106Z,17.47
2019-03-28T08:24:57.332Z,16.40
2019-03-28T08:27:30.595Z,17.40
2019-03-28T08:30:17.229Z,18.67
2019-03-28T08:32:39.976Z,17.17
2019-03-28T08:35:15.061Z,16.53
2019-03-28T08:37:48.337Z,17.10
2019-03-28T08:40:39.436Z,17.80
2019-03-28T08:43:11.516Z,18.43
2019-03-28T08:45:44.791Z,16.60
2019-03-28T08:48:18.029Z,18.20
2019-03-28T08:50:51.255Z,18.03
2019-03-28T08:53:24.488Z,18.67
2019-03-28T08:55:57.736Z,16.67
2019-03-28T08:58:30.972Z,19.20
2019-03-28T09:01:05.958Z,18.20
2019-03-28T09:03:39.360Z,18.50
2019-03-28T09:06:12.682Z,18.37
2019-03-28T09:08:45.906Z,20.00
2019-03-28T09:11:21.471Z,18.07
2019-03-28T09:13:54.333Z,17.87
2019-03-28T09:16:27.572Z,15.67
2019-03-28T09:19:00.850Z,17.17
2019-03-28T09:21:34.157Z,16.20
2019-03-28T09:24:07.487Z,15.93
2019-03-28T09:26:40.733Z,14.90
2019-03-28T09:29:14.065Z,13.90
2019-03-28T09:31:47.320Z,14.33
2019-03-28T09:34:20.860Z,14.43
2019-03-28T09:36:54.110Z,13.57
2019-03-28T09:39:27.371Z,14.23
2019-03-28T09:42:00.612Z,13.03
2019-03-28T09:44:33.867Z,13.07
2019-03-28T09:47:07.091Z,12.03
2019-03-28T09:49:40.375Z,11.63
2019-03-28T09:52:13.626Z,11.37
2019-03-28T09:54:46.894Z,12.17
2019-03-28T09:57:20.128Z,11.67
2019-03-28T09:59:53.406Z,12.10
2019-03-28T10:02:26.643Z,10.50
2019-03-28T10:05:00.049Z,10.63
2019-03-28T10:07:33.268Z,10.87
2019-03-28T10:10:09.163Z,11.70
2019-03-28T10:12:44.136Z,10.83
2019-03-28T10:15:16.605Z,11.60
2019-03-28T10:17:50.927Z,10.50
2019-03-28T10:20:24.331Z,10.20
2019-03-28T10:22:57.581Z,9.43
2019-03-28T10:25:30.814Z,8.93
2019-03-28T10:28:04.036Z,10.20
2019-03-28T10:30:49.667Z,9.60
2019-03-28T10:33:22.936Z,9.80
2019-03-28T10:35:56.685Z,9.63
2019-03-28T10:38:30.225Z,9.00
2019-03-28T10:41:04.080Z,9.27
2019-03-28T10:43:37.316Z,9.90
2019-03-28T10:46:10.547Z,10.23
2019-03-28T10:48:43.819Z,9.07
2019-03-28T10:51:17.045Z,9.27
2019-03-28T10:53:50.285Z,9.87
2019-03-28T10:56:24.254Z,9.10
2019-03-28T10:58:57.792Z,9.17
2019-03-28T11:01:47.433Z,9.10
2019-03-28T11:04:05.982Z,8.60
2019-03-28T11:06:39.229Z,9.27
2019-03-28T11:09:12.466Z,9.23
2019-03-28T11:11:45.734Z,8.80
2019-03-28T11:14:19.048Z,8.33
2019-03-28T11:16:53.153Z,8.00
2019-03-28T11:19:26.382Z,8.30
2019-03-28T11:21:59.622Z,8.37
2019-03-28T11:24:32.846Z,8.30
2019-03-28T11:27:06.104Z,8.43
2019-03-28T11:29:39.320Z,7.30
2019-03-28T11:32:12.574Z,8.30
2019-03-28T11:34:45.828Z,6.97
2019-03-28T11:37:25.978Z,7.60
2019-03-28T11:39:54.035Z,8.13
2019-03-28T11:42:27.812Z,7.33
2019-03-28T11:45:01.234Z,7.90
2019-03-28T11:47:34.510Z,8.00
2019-03-28T11:50:08.734Z,8.40
2019-03-28T11:52:42.835Z,7.77
2019-03-28T11:55:16.305Z,8.40
2019-03-28T11:57:49.572Z,8.50
2019-03-28T12:00:22.826Z,8.83
2019-03-28T12:02:56.071Z,8.93
2019-03-28T12:05:29.389Z,9.17
2019-03-28T12:08:02.636Z,8.67
2019-03-28T12:10:35.874Z,8.43
2019-03-28T12:13:09.195Z,8.60
2019-03-28T12:15:42.438Z,9.17
2019-03-28T12:18:16.764Z,9.37
2019-03-28T12:20:49.988Z,8.40
2019-03-28T12:23:23.275Z,8.83
2019-03-28T12:25:56.696Z,9.07
2019-03-28T12:28:30.116Z,8.37
2019-03-28T12:31:03.304Z,8.00
2019-03-28T12:33:36.560Z,8.27
2019-03-28T12:36:09.862Z,9.20
2019-03-28T12:38:43.125Z,7.80
2019-03-28T12:41:16.363Z,8.20
2019-03-28T12:43:49.636Z,8.40
2019-03-28T12:46:25.588Z,8.20
2019-03-28T12:48:57.881Z,7.73
2019-03-28T12:51:31.120Z,8.67
2019-03-28T12:54:04.417Z,8.23
2019-03-28T12:56:38.079Z,8.57
2019-03-28T12:59:11.962Z,9.00
2019-03-28T13:01:46.751Z,8.37
2019-03-28T13:04:20.107Z,8.00
2019-03-28T13:06:53.391Z,8.43
2019-03-28T13:09:28.159Z,7.57
2019-03-28T13:12:01.544Z,8.40
2019-03-28T13:14:34.784Z,8.43
2019-03-28T13:17:08.002Z,8.17
2019-03-28T13:19:41.181Z,8.53
2019-03-28T13:22:14.497Z,8.43
2019-03-28T13:24:47.765Z,8.23
2019-03-28T13:27:21.070Z,7.57
2019-03-28T13:29:55.150Z,6.73
2019-03-28T13:32:41.073Z,7.10
2019-03-28T13:35:03.380Z,7.10
2019-03-28T13:37:36.621Z,7.80
2019-03-28T13:40:09.925Z,6.70
2019-03-28T13:42:43.131Z,7.37
2019-03-28T13:45:17.928Z,6.83
2019-03-28T13:47:54.181Z,7.17
2019-03-28T13:50:26.059Z,6.47
2019-03-28T13:52:59.285Z,6.97
2019-03-28T13:55:32.549Z,6.33
2019-03-28T13:58:05.824Z,6.80
2019-03-28T14:00:39.474Z,7.90
2019-03-28T14:03:12.690Z,6.70
2019-03-28T14:05:45.992Z,6.67
2019-03-28T14:08:19.362Z,6.00
2019-03-28T14:10:53.195Z,7.77
2019-03-28T14:13:26.650Z,7.37
2019-03-28T14:16:00.226Z,8.10
2019-03-28T14:18:35.970Z,7.63
2019-03-28T14:21:09.400Z,8.50
2019-03-28T14:23:42.951Z,6.70
2019-03-28T14:26:16.456Z,8.17
2019-03-28T14:28:50.437Z,7.43
2019-03-28T14:31:24.100Z,8.03
2019-03-28T14:33:57.783Z,7.60
2019-03-28T14:36:31.539Z,7.47
2019-03-28T14:39:06.558Z,7.50
2019-03-28T14:41:39.792Z,7.50
2019-03-28T14:44:13.104Z,7.17
2019-03-28T14:46:46.449Z,6.80
2019-03-28T14:49:19.946Z,7.40
2019-03-28T14:51:53.331Z,7.20
2019-03-28T14:54:26.929Z,6.67
2019-03-28T14:57:00.856Z,7.10
2019-03-28T14:59:34.724Z,7.17
2019-03-28T15:02:08.224Z,6.63
2019-03-28T15:04:41.459Z,7.37
2019-03-28T15:07:14.928Z,6.23
2019-03-28T15:09:48.260Z,6.17
2019-03-28T15:12:21.965Z,6.63
2019-03-28T15:14:55.314Z,6.20
2019-03-28T15:17:29.700Z,6.30
2019-03-28T15:20:03.352Z,6.93
2019-03-28T15:22:36.699Z,6.17
2019-03-28T15:25:10.219Z,6.57
2019-03-28T15:27:43.519Z,6.27
2019-03-28T15:30:16.998Z,5.60
2019-03-28T15:32:50.317Z,5.57
2019-03-28T15:35:23.884Z,5.87
2019-03-28T15:37:58.177Z,6.10
2019-03-28T15:40:31.408Z,5.80
2019-03-28T15:43:04.666Z,5.53
2019-03-28T15:45:39.014Z,5.50
2019-03-28T15:48:13.498Z,5.87
2019-03-28T15:50:47.699Z,5.37
2019-03-28T15:53:21.297Z,5.70
2019-03-28T15:55:55.021Z,4.70
2019-03-28T15:58:28.595Z,5.67
2019-03-28T16:01:04.785Z,5.80
2019-03-28T16:03:51.997Z,4.70
2019-03-28T16:06:13.384Z,5.57
2019-03-28T16:08:46.915Z,6.03
2019-03-28T16:11:20.398Z,6.30
2019-03-28T16:13:55.448Z,5.23
2019-03-28T16:16:29.884Z,5.80
2019-03-28T16:19:03.363Z,5.40
2019-03-28T16:21:37.225Z,5.13
2019-03-28T16:24:10.672Z,4.67
2019-03-28T16:26:44.324Z,5.10
2019-03-28T16:29:18.367Z,5.23
2019-03-28T16:31:52.845Z,5.70
2019-03-28T16:34:26.578Z,5.70
2019-03-28T16:36:59.801Z,6.07
2019-03-28T16:39:33.083Z,5.73
2019-03-28T16:42:06.322Z,6.23
2019-03-28T16:44:39.560Z,5.67
2019-03-28T16:47:12.786Z,6.17
2019-03-28T16:49:46.056Z,5.40
2019-03-28T16:52:19.276Z,5.57
2019-03-28T16:54:53.550Z,5.17
2019-03-28T16:57:26.980Z,5.27
2019-03-28T17:00:00.395Z,5.80
2019-03-28T17:02:34.862Z,5.40
2019-03-28T17:05:08.684Z,4.87
2019-03-28T17:07:41.904Z,4.60
2019-03-28T17:10:54.025Z,4.00
2019-03-28T17:13:27.243Z,4.00
2019-03-28T17:16:00.478Z,3.83
2019-03-28T17:18:33.764Z,3.80
2019-03-28T17:21:07.014Z,4.00
2019-03-28T17:23:40.265Z,3.33
2019-03-28T17:26:13.526Z,3.57
2019-03-28T17:28:46.863Z,3.57
2019-03-28T17:31:20.110Z,3.90
2019-03-28T17:33:53.343Z,3.50
2019-03-28T17:36:26.965Z,3.83
2019-03-28T17:39:00.409Z,3.50
2019-03-28T17:41:33.735Z,3.73
2019-03-28T17:44:07.865Z,3.43
2019-03-28T17:46:41.281Z,4.10
2019-03-28T17:49:14.539Z,4.20
2019-03-28T17:51:47.809Z,4.37
2019-03-28T17:54:21.033Z,4.70
2019-03-28T17:56:54.287Z,4.30
2019-03-28T17:59:27.528Z,4.73
2019-03-28T18:02:00.772Z,4.93
2019-03-28T18:04:47.201Z,5.00
2019-03-28T18:07:08.955Z,4.87
2019-03-28T18:09:42.171Z,4.97
2019-03-28T18:12:15.403Z,4.70
2019-03-28T18:14:49.617Z,4.70
2019-03-28T18:17:23.042Z,4.17
2019-03-28T18:19:56.254Z,4.43
2019-03-28T18:22:29.496Z,5.00
2019-03-28T18:25:02.703Z,4.70
2019-03-28T18:27:35.935Z,4.63
2019-03-28T18:30:09.393Z,4.80
2019-03-28T18:32:42.627Z,4.73
2019-03-28T18:35:15.840Z,4.47
2019-03-28T18:37:49.082Z,5.13
2019-03-28T18:40:22.300Z,4.73
2019-03-28T18:42:55.543Z,4.53
2019-03-28T18:45:28.751Z,5.33
2019-03-28T18:48:02.079Z,4.83
2019-03-28T18:50:35.329Z,4.93
2019-03-28T18:53:09.657Z,4.60
2019-03-28T18:55:42.864Z,5.07
2019-03-28T18:58:16.180Z,5.30
2019-03-28T19:00:49.403Z,5.17
2019-03-28T19:03:22.646Z,4.93
2019-03-28T19:05:55.873Z,5.90
2019-03-28T19:08:29.104Z,8.33
2019-03-28T19:11:02.329Z,7.73
2019-03-28T19:13:35.571Z,8.37
2019-03-28T19:16:08.794Z,7.80
2019-03-28T19:18:42.029Z,7.47
2019-03-28T19:21:15.251Z,7.27
2019-03-28T19:23:48.512Z,6.93
2019-03-28T19:26:21.734Z,7.10
2019-03-28T19:28:56.273Z,6.93
2019-03-28T19:31:30.836Z,7.53
2019-03-28T19:34:04.074Z,8.03
2019-03-28T19:36:37.312Z,7.70
2019-03-28T19:39:11.972Z,7.63
2019-03-28T19:41:45.192Z,7.60
2019-03-28T19:44:18.438Z,7.60
2019-03-28T19:46:51.727Z,6.53
2019-03-28T19:49:24.959Z,6.23
2019-03-28T19:51:58.315Z,6.10
2019-03-28T19:54:31.550Z,6.17
2019-03-28T19:57:04.769Z,6.47
2019-03-28T19:59:39.148Z,5.90
2019-03-28T20:02:14.189Z,6.40
2019-03-28T20:04:47.323Z,6.10
2019-03-28T20:07:22.158Z,5.53
2019-03-28T20:09:57.366Z,5.30
2019-03-28T20:12:31.141Z,5.53
2019-03-28T20:15:04.987Z,5.60
2019-03-28T20:17:38.232Z,5.33
2019-03-28T20:20:11.495Z,5.70
2019-03-28T20:22:45.039Z,5.40
2019-03-28T20:25:18.442Z,6.30
2019-03-28T20:27:51.759Z,6.57
2019-03-28T20:30:25.617Z,6.47
2019-03-28T20:32:58.933Z,6.63
2019-03-28T20:35:32.154Z,6.83
2019-03-28T20:38:05.415Z,6.40
2019-03-28T20:40:38.638Z,6.43
2019-03-28T20:43:11.954Z,6.90
2019-03-28T20:45:45.173Z,6.83
2019-03-28T20:48:18.428Z,6.63
2019-03-28T20:50:51.676Z,6.60
2019-03-28T20:53:24.932Z,6.80
2019-03-28T20:55:58.155Z,7.37
2019-03-28T20:58:31.335Z,7.10
2019-03-28T21:01:04.894Z,7.40
2019-03-28T21:03:38.459Z,7.27
2019-03-28T21:06:15.491Z,7.77
2019-03-28T21:08:47.237Z,7.23
2019-03-28T21:11:20.474Z,6.27
2019-03-28T21:13:53.721Z,6.10
2019-03-28T21:16:26.951Z,6.40
2019-03-28T21:19:00.261Z,5.77
2019-03-28T21:21:34.554Z,6.10
2019-03-28T21:24:07.795Z,5.87
2019-03-28T21:26:41.294Z,5.77
2019-03-28T21:29:14.636Z,6.40
2019-03-28T21:31:50.190Z,6.57
2019-03-28T21:34:22.791Z,6.10
2019-03-28T21:36:56.020Z,5.90
2019-03-28T21:39:29.263Z,6.50
2019-03-28T21:42:02.491Z,5.80
2019-03-28T21:44:35.739Z,5.57
2019-03-28T21:47:08.963Z,6.47
2019-03-28T21:49:42.279Z,6.13
2019-03-28T21:52:15.548Z,5.83
2019-03-28T21:54:48.861Z,5.30
2019-03-28T21:57:22.090Z,5.07
2019-03-28T21:59:55.359Z,5.53
2019-03-28T22:02:28.580Z,5.30
2019-03-28T22:05:01.825Z,5.87
2019-03-28T22:07:35.217Z,5.77
2019-03-28T22:10:09.646Z,5.80
2019-03-28T22:12:42.873Z,5.73
2019-03-28T22:15:16.120Z,5.40
2019-03-28T22:17:49.335Z,6.27
2019-03-28T22:20:22.941Z,6.17
2019-03-28T22:22:56.160Z,5.93
2019-03-28T22:25:29.400Z,6.20
2019-03-28T22:28:02.677Z,6.53
2019-03-28T22:30:35.943Z,5.90
2019-03-28T22:33:09.176Z,6.07
2019-03-28T22:35:42.350Z,6.13
2019-03-28T22:38:15.577Z,5.50
2019-03-28T22:40:48.823Z,6.30
2019-03-28T22:43:22.046Z,5.87
2019-03-28T22:45:55.291Z,6.50
2019-03-28T22:48:28.558Z,6.30
2019-03-28T22:51:01.791Z,5.97
2019-03-28T22:53:35.042Z,6.40
2019-03-28T22:56:08.284Z,6.13
2019-03-28T22:58:41.533Z,6.73
2019-03-28T23:01:14.825Z,6.10
2019-03-28T23:03:49.657Z,6.43
2019-03-28T23:06:23.028Z,6.37
2019-03-28T23:08:56.505Z,6.50
2019-03-28T23:11:29.767Z,6.50
2019-03-28T23:14:02.990Z,7.20
2019-03-28T23:16:36.238Z,6.47
2019-03-28T23:19:12.020Z,8.03
2019-03-28T23:21:44.404Z,7.57
2019-03-28T23:24:17.837Z,6.57
2019-03-28T23:26:51.151Z,7.13
2019-03-28T23:29:24.367Z,6.77
2019-03-28T23:31:57.659Z,7.63
2019-03-28T23:34:30.948Z,7.73
2019-03-28T23:37:04.226Z,7.63
2019-03-28T23:39:39.602Z,7.10
2019-03-28T23:42:13.825Z,6.00
2019-03-28T23:44:47.253Z,6.53
2019-03-28T23:47:20.536Z,5.97
2019-03-28T23:49:53.790Z,6.40
2019-03-28T23:52:27.979Z,6.43
2019-03-28T23:55:01.197Z,6.33
2019-03-28T23:57:34.448Z,5.80
